Rechercher aéroport 
image banner adimage banner ad
image banner ad

LRFRAT - Fratauti

Situé à Fratautii Vechi, Romania

ICAO - , IATA -

Données fournies par Airmate  

Information générale

Coordonnées: N47°53'15" E25°53'54"
Élévation : 1220 feet MSL.
Variation magnétique : 5.77° East
Voir autres Aéroports à Suceava

Données opérationnelles

Accessible au public
Heure actuelle UTC:
Heure actuelle locale:
METAR: LRSV 211800Z 20005KT CAVOK 03/M01 Q1014 R16/855094
TAF: TAF LRSV 211700Z 2118/2203 20006KT CAVOK
Voir NOTAMs / SUP AIP / TFR affectant cet aéroport [VIEW]
Fréquences de communication: [VIEW]

Pistes:

Identifiant RWYQFULongueur (ft)Largeur (ft)SurfaceLDA (ft)
16160°262598GRASS
34340°262598GRASS

Coordonnées de l'aéroport

Adresse: Fratautii Vechi Romania

Vue satellite de LRFRAT